Tonghe, China
Current Conditions -  °F | °C
As of 10:00 AM on Wednesday 22 Oct 2014 (Local Time) from ZYHB Reporting Station
Smoke Smoke  
Wind Chill: 32°   Ceiling: Unl
Heat Index: 39°   Visibility: 0.87mi
Dew Point:   Wind: 11mph
Humidity: 24%   Direction: 200°SSW
Pressure: 30.21"   Gusts: NA
Location:  45.97°N, 128.73°E
Report Text: ZYHB 220200Z 20005MPS 1400 R23/1300N FU NSC 04/M15 Q1023 BECMG TL0320 2000
Loading
Personal Weather Stations






























Interactive Weather Map
Tropical Storm Tracking
New forecast layout! Learn more

10-Day Weather Forecast

Advertisements
Track Severe Weather on mobile